sensor_id;sensor_type;location;lat;lon;timestamp;temperature;humidity
44671;DHT22;48397;53.016;-2.260;2023-04-25T00:04:28;1.40;99.90
44671;DHT22;48397;53.016;-2.260;2023-04-25T00:07:01;1.40;99.90
44671;DHT22;48397;53.016;-2.260;2023-04-25T00:09:29;1.40;99.90
44671;DHT22;48397;53.016;-2.260;2023-04-25T00:12:01;1.30;99.90
44671;DHT22;48397;53.016;-2.260;2023-04-25T00:14:31;1.40;99.90
44671;DHT22;48397;53.016;-2.260;2023-04-25T00:22:02;1.60;99.90
44671;DHT22;48397;53.016;-2.260;2023-04-25T00:24:30;1.60;99.90
44671;DHT22;48397;53.016;-2.260;2023-04-25T00:46:48;1.00;99.90
44671;DHT22;48397;53.016;-2.260;2023-04-25T00:49:19;1.00;99.90
44671;DHT22;48397;53.016;-2.260;2023-04-25T00:51:48;0.90;99.90
44671;DHT22;48397;53.016;-2.260;2023-04-25T00:56:45;0.80;99.90
44671;DHT22;48397;53.016;-2.260;2023-04-25T00:59:15;0.70;99.90
44671;DHT22;48397;53.016;-2.260;2023-04-25T01:01:45;0.70;99.90
44671;DHT22;48397;53.016;-2.260;2023-04-25T01:09:12;0.50;99.90
44671;DHT22;48397;53.016;-2.260;2023-04-25T01:16:38;0.30;99.90
44671;DHT22;48397;53.016;-2.260;2023-04-25T01:19:10;0.20;99.90
44671;DHT22;48397;53.016;-2.260;2023-04-25T01:21:39;0.30;99.90
44671;DHT22;48397;53.016;-2.260;2023-04-25T01:26:37;0.30;99.90
44671;DHT22;48397;53.016;-2.260;2023-04-25T01:29:07;0.40;99.90
44671;DHT22;48397;53.016;-2.260;2023-04-25T01:31:36;0.40;99.90
44671;DHT22;48397;53.016;-2.260;2023-04-25T01:34:05;0.50;99.90
44671;DHT22;48397;53.016;-2.260;2023-04-25T01:36:33;0.60;99.90
44671;DHT22;48397;53.016;-2.260;2023-04-25T01:39:01;0.60;99.90
44671;DHT22;48397;53.016;-2.260;2023-04-25T01:41:29;0.60;99.90
44671;DHT22;48397;53.016;-2.260;2023-04-25T01:43:59;0.50;99.90
44671;DHT22;48397;53.016;-2.260;2023-04-25T01:46:28;0.40;99.90
44671;DHT22;48397;53.016;-2.260;2023-04-25T01:48:56;0.30;99.90
44671;DHT22;48397;53.016;-2.260;2023-04-25T01:51:24;0.20;99.90
44671;DHT22;48397;53.016;-2.260;2023-04-25T01:58:49;0.00;99.90
44671;DHT22;48397;53.016;-2.260;2023-04-25T02:09:04;-0.40;99.90
44671;DHT22;48397;53.016;-2.260;2023-04-25T02:11:32;-0.40;99.90
44671;DHT22;48397;53.016;-2.260;2023-04-25T02:16:59;-0.40;99.90
44671;DHT22;48397;53.016;-2.260;2023-04-25T02:19:30;-0.50;99.90
44671;DHT22;48397;53.016;-2.260;2023-04-25T02:22:01;-0.50;99.90
44671;DHT22;48397;53.016;-2.260;2023-04-25T02:34:26;-0.50;99.90
44671;DHT22;48397;53.016;-2.260;2023-04-25T02:36:53;-0.50;99.90
44671;DHT22;48397;53.016;-2.260;2023-04-25T02:39:21;-0.50;99.90
44671;DHT22;48397;53.016;-2.260;2023-04-25T02:41:49;-0.50;99.90
44671;DHT22;48397;53.016;-2.260;2023-04-25T02:59:23;-0.80;99.90
44671;DHT22;48397;53.016;-2.260;2023-04-25T03:04:19;-0.80;99.90
44671;DHT22;48397;53.016;-2.260;2023-04-25T03:06:47;-0.80;99.90
44671;DHT22;48397;53.016;-2.260;2023-04-25T03:09:15;-0.80;99.90
44671;DHT22;48397;53.016;-2.260;2023-04-25T03:11:45;-0.80;99.90
44671;DHT22;48397;53.016;-2.260;2023-04-25T03:14:13;-0.80;99.90
44671;DHT22;48397;53.016;-2.260;2023-04-25T03:16:41;-0.90;99.90
44671;DHT22;48397;53.016;-2.260;2023-04-25T03:19:09;-0.90;99.90
44671;DHT22;48397;53.016;-2.260;2023-04-25T03:21:37;-0.90;99.90
44671;DHT22;48397;53.016;-2.260;2023-04-25T03:26:33;-0.90;99.90
44671;DHT22;48397;53.016;-2.260;2023-04-25T03:34:00;-1.00;99.90
44671;DHT22;48397;53.016;-2.260;2023-04-25T03:36:28;-1.10;99.90
44671;DHT22;48397;53.016;-2.260;2023-04-25T03:41:24;-1.20;99.90
44671;DHT22;48397;53.016;-2.260;2023-04-25T03:43:56;-1.20;99.90
44671;DHT22;48397;53.016;-2.260;2023-04-25T03:46:24;-1.20;99.90
44671;DHT22;48397;53.016;-2.260;2023-04-25T03:48:53;-1.20;99.90
44671;DHT22;48397;53.016;-2.260;2023-04-25T03:51:27;-5.00;99.90
44671;DHT22;48397;53.016;-2.260;2023-04-25T04:01:37;-1.20;99.90
44671;DHT22;48397;53.016;-2.260;2023-04-25T04:04:05;-1.30;99.90
44671;DHT22;48397;53.016;-2.260;2023-04-25T04:09:09;-1.40;99.90
44671;DHT22;48397;53.016;-2.260;2023-04-25T04:11:41;-1.40;99.90
44671;DHT22;48397;53.016;-2.260;2023-04-25T04:16:44;-1.40;99.90
44671;DHT22;48397;53.016;-2.260;2023-04-25T04:21:46;-1.50;99.90
44671;DHT22;48397;53.016;-2.260;2023-04-25T04:24:14;-1.40;99.90
44671;DHT22;48397;53.016;-2.260;2023-04-25T04:26:56;-1.40;99.90
44671;DHT22;48397;53.016;-2.260;2023-04-25T04:29:36;-1.30;99.90
44671;DHT22;48397;53.016;-2.260;2023-04-25T04:39:41;-1.30;99.90
44671;DHT22;48397;53.016;-2.260;2023-04-25T04:44:59;-1.40;99.90
44671;DHT22;48397;53.016;-2.260;2023-04-25T04:47:49;-1.40;99.90
44671;DHT22;48397;53.016;-2.260;2023-04-25T04:50:56;-1.40;99.90
44671;DHT22;48397;53.016;-2.260;2023-04-25T04:53:44;-1.40;99.90
44671;DHT22;48397;53.016;-2.260;2023-04-25T04:59:41;-1.40;99.90
44671;DHT22;48397;53.016;-2.260;2023-04-25T05:05:29;-1.40;99.90
44671;DHT22;48397;53.016;-2.260;2023-04-25T05:10:54;-1.50;99.90
44671;DHT22;48397;53.016;-2.260;2023-04-25T05:13:37;-1.50;99.90
44671;DHT22;48397;53.016;-2.260;2023-04-25T05:19:19;-1.40;99.90
44671;DHT22;48397;53.016;-2.260;2023-04-25T05:24:38;-1.30;99.90
44671;DHT22;48397;53.016;-2.260;2023-04-25T05:27:17;-1.20;99.90
44671;DHT22;48397;53.016;-2.260;2023-04-25T05:30:04;-1.20;99.90
44671;DHT22;48397;53.016;-2.260;2023-04-25T05:40:14;-1.10;99.90
44671;DHT22;48397;53.016;-2.260;2023-04-25T05:43:11;-1.00;99.90
44671;DHT22;48397;53.016;-2.260;2023-04-25T05:45:57;-0.90;99.90
44671;DHT22;48397;53.016;-2.260;2023-04-25T05:51:06;-0.80;99.90
44671;DHT22;48397;53.016;-2.260;2023-04-25T05:53:46;-0.70;99.90
44671;DHT22;48397;53.016;-2.260;2023-04-25T05:58:45;-0.50;99.90
44671;DHT22;48397;53.016;-2.260;2023-04-25T06:03:44;-0.40;99.90
44671;DHT22;48397;53.016;-2.260;2023-04-25T06:06:12;-0.50;99.90
44671;DHT22;48397;53.016;-2.260;2023-04-25T06:08:40;-0.30;99.90
44671;DHT22;48397;53.016;-2.260;2023-04-25T06:11:11;-0.40;99.90
44671;DHT22;48397;53.016;-2.260;2023-04-25T06:13:39;-0.10;99.90
44671;DHT22;48397;53.016;-2.260;2023-04-25T06:16:07;0.10;99.90
44671;DHT22;48397;53.016;-2.260;2023-04-25T06:18:35;0.10;99.90
44671;DHT22;48397;53.016;-2.260;2023-04-25T06:21:03;0.20;99.90
44671;DHT22;48397;53.016;-2.260;2023-04-25T06:26:07;0.40;99.90
44671;DHT22;48397;53.016;-2.260;2023-04-25T06:33:35;0.70;99.90
44671;DHT22;48397;53.016;-2.260;2023-04-25T06:38:33;1.00;99.90
44671;DHT22;48397;53.016;-2.260;2023-04-25T06:41:02;1.10;99.90
44671;DHT22;48397;53.016;-2.260;2023-04-25T06:46:26;1.40;99.90
44671;DHT22;48397;53.016;-2.260;2023-04-25T06:48:57;1.60;99.90
44671;DHT22;48397;53.016;-2.260;2023-04-25T06:51:25;1.80;99.90
44671;DHT22;48397;53.016;-2.260;2023-04-25T06:53:56;1.90;99.90
44671;DHT22;48397;53.016;-2.260;2023-04-25T06:59:06;2.20;99.90
44671;DHT22;48397;53.016;-2.260;2023-04-25T07:01:38;2.40;99.90
44671;DHT22;48397;53.016;-2.260;2023-04-25T07:04:24;5.90;99.90
44671;DHT22;48397;53.016;-2.260;2023-04-25T07:06:58;2.70;99.90
44671;DHT22;48397;53.016;-2.260;2023-04-25T07:09:36;2.90;99.90
44671;DHT22;48397;53.016;-2.260;2023-04-25T07:12:05;3.20;99.90
44671;DHT22;48397;53.016;-2.260;2023-04-25T07:14:33;3.60;99.90
44671;DHT22;48397;53.016;-2.260;2023-04-25T07:17:01;3.80;99.90
44671;DHT22;48397;53.016;-2.260;2023-04-25T07:19:32;3.90;99.90
44671;DHT22;48397;53.016;-2.260;2023-04-25T07:24:33;4.20;99.90
44671;DHT22;48397;53.016;-2.260;2023-04-25T07:29:46;4.50;99.90
44671;DHT22;48397;53.016;-2.260;2023-04-25T07:34:47;4.70;99.90
44671;DHT22;48397;53.016;-2.260;2023-04-25T07:44:58;5.20;99.90
44671;DHT22;48397;53.016;-2.260;2023-04-25T07:49:56;5.30;99.90
44671;DHT22;48397;53.016;-2.260;2023-04-25T07:52:26;5.40;99.90
44671;DHT22;48397;53.016;-2.260;2023-04-25T07:55:03;5.50;99.90
44671;DHT22;48397;53.016;-2.260;2023-04-25T07:57:42;5.60;99.90
44671;DHT22;48397;53.016;-2.260;2023-04-25T08:00:28;5.70;99.90
44671;DHT22;48397;53.016;-2.260;2023-04-25T08:03:29;5.80;99.90
44671;DHT22;48397;53.016;-2.260;2023-04-25T08:05:58;5.80;99.90
44671;DHT22;48397;53.016;-2.260;2023-04-25T08:08:30;5.80;99.90
44671;DHT22;48397;53.016;-2.260;2023-04-25T08:10:58;5.90;99.90
44671;DHT22;48397;53.016;-2.260;2023-04-25T08:13:27;5.90;99.90
44671;DHT22;48397;53.016;-2.260;2023-04-25T08:15:57;6.10;99.90
44671;DHT22;48397;53.016;-2.260;2023-04-25T08:18:31;6.00;99.90
44671;DHT22;48397;53.016;-2.260;2023-04-25T08:21:06;6.10;99.90
44671;DHT22;48397;53.016;-2.260;2023-04-25T08:23:40;6.20;99.90
44671;DHT22;48397;53.016;-2.260;2023-04-25T08:26:14;6.30;99.90
44671;DHT22;48397;53.016;-2.260;2023-04-25T08:31:11;6.40;99.90
44671;DHT22;48397;53.016;-2.260;2023-04-25T08:33:50;6.50;99.90
44671;DHT22;48397;53.016;-2.260;2023-04-25T08:36:32;6.60;99.90
44671;DHT22;48397;53.016;-2.260;2023-04-25T08:42:08;6.70;99.90
44671;DHT22;48397;53.016;-2.260;2023-04-25T08:44:39;6.90;99.90
44671;DHT22;48397;53.016;-2.260;2023-04-25T08:47:10;6.70;99.90
44671;DHT22;48397;53.016;-2.260;2023-04-25T08:49:49;6.90;99.90
44671;DHT22;48397;53.016;-2.260;2023-04-25T08:52:23;7.00;99.90
44671;DHT22;48397;53.016;-2.260;2023-04-25T08:54:54;7.10;99.90
44671;DHT22;48397;53.016;-2.260;2023-04-25T08:57:25;7.20;99.90
44671;DHT22;48397;53.016;-2.260;2023-04-25T08:59:54;6.50;99.90
44671;DHT22;48397;53.016;-2.260;2023-04-25T09:02:24;7.30;99.90
44671;DHT22;48397;53.016;-2.260;2023-04-25T09:04:54;7.30;99.90
44671;DHT22;48397;53.016;-2.260;2023-04-25T09:07:23;7.40;99.90
44671;DHT22;48397;53.016;-2.260;2023-04-25T09:15:11;7.50;99.90
44671;DHT22;48397;53.016;-2.260;2023-04-25T09:17:57;7.50;99.90
44671;DHT22;48397;53.016;-2.260;2023-04-25T09:20:41;7.50;99.90
44671;DHT22;48397;53.016;-2.260;2023-04-25T09:26:07;7.70;99.90
44671;DHT22;48397;53.016;-2.260;2023-04-25T09:28:38;7.70;99.90
44671;DHT22;48397;53.016;-2.260;2023-04-25T09:31:24;7.70;99.90
44671;DHT22;48397;53.016;-2.260;2023-04-25T09:34:00;7.80;99.90
44671;DHT22;48397;53.016;-2.260;2023-04-25T09:36:41;7.80;99.90
44671;DHT22;48397;53.016;-2.260;2023-04-25T09:39:29;7.80;99.90
44671;DHT22;48397;53.016;-2.260;2023-04-25T09:42:09;7.90;99.90
44671;DHT22;48397;53.016;-2.260;2023-04-25T09:44:42;7.90;99.90
44671;DHT22;48397;53.016;-2.260;2023-04-25T09:47:17;8.00;99.90
44671;DHT22;48397;53.016;-2.260;2023-04-25T09:49:47;8.10;99.90
44671;DHT22;48397;53.016;-2.260;2023-04-25T09:52:18;8.30;99.90
44671;DHT22;48397;53.016;-2.260;2023-04-25T09:55:12;8.30;99.90
44671;DHT22;48397;53.016;-2.260;2023-04-25T09:57:55;8.30;99.90
44671;DHT22;48397;53.016;-2.260;2023-04-25T10:00:27;8.30;99.90
44671;DHT22;48397;53.016;-2.260;2023-04-25T10:03:01;8.40;99.90
44671;DHT22;48397;53.016;-2.260;2023-04-25T10:05:58;8.50;99.90
44671;DHT22;48397;53.016;-2.260;2023-04-25T10:08:31;8.60;99.90
44671;DHT22;48397;53.016;-2.260;2023-04-25T10:11:02;8.60;99.90
44671;DHT22;48397;53.016;-2.260;2023-04-25T10:13:32;8.40;99.90
44671;DHT22;48397;53.016;-2.260;2023-04-25T10:16:03;8.40;99.90
44671;DHT22;48397;53.016;-2.260;2023-04-25T10:18:34;8.50;99.90
44671;DHT22;48397;53.016;-2.260;2023-04-25T10:21:04;8.50;99.90
44671;DHT22;48397;53.016;-2.260;2023-04-25T10:23:32;8.60;99.90
44671;DHT22;48397;53.016;-2.260;2023-04-25T10:26:04;8.80;99.90
44671;DHT22;48397;53.016;-2.260;2023-04-25T10:28:54;8.70;99.90
44671;DHT22;48397;53.016;-2.260;2023-04-25T10:31:20;8.90;99.90
44671;DHT22;48397;53.016;-2.260;2023-04-25T10:33:49;8.90;99.90
44671;DHT22;48397;53.016;-2.260;2023-04-25T10:36:19;9.00;99.90
44671;DHT22;48397;53.016;-2.260;2023-04-25T10:38:50;9.10;99.90
44671;DHT22;48397;53.016;-2.260;2023-04-25T10:41:20;9.10;99.90
44671;DHT22;48397;53.016;-2.260;2023-04-25T10:43:59;9.00;99.90
44671;DHT22;48397;53.016;-2.260;2023-04-25T10:46:33;8.90;99.90
44671;DHT22;48397;53.016;-2.260;2023-04-25T10:49:02;9.10;99.90
44671;DHT22;48397;53.016;-2.260;2023-04-25T10:51:32;9.20;99.90
44671;DHT22;48397;53.016;-2.260;2023-04-25T10:54:22;9.20;99.60
44671;DHT22;48397;53.016;-2.260;2023-04-25T10:56:52;9.00;99.10
44671;DHT22;48397;53.016;-2.260;2023-04-25T10:59:20;9.00;99.30
44671;DHT22;48397;53.016;-2.260;2023-04-25T11:01:52;9.00;99.90
44671;DHT22;48397;53.016;-2.260;2023-04-25T11:04:31;9.40;99.90
44671;DHT22;48397;53.016;-2.260;2023-04-25T11:07:04;9.50;99.90
44671;DHT22;48397;53.016;-2.260;2023-04-25T11:09:39;9.50;99.60
44671;DHT22;48397;53.016;-2.260;2023-04-25T11:12:11;9.50;99.60
44671;DHT22;48397;53.016;-2.260;2023-04-25T11:14:42;9.50;98.90
44671;DHT22;48397;53.016;-2.260;2023-04-25T11:17:10;9.40;98.70
44671;DHT22;48397;53.016;-2.260;2023-04-25T11:19:39;9.50;98.50
44671;DHT22;48397;53.016;-2.260;2023-04-25T11:22:07;9.50;98.70
44671;DHT22;48397;53.016;-2.260;2023-04-25T11:24:38;9.80;98.70
44671;DHT22;48397;53.016;-2.260;2023-04-25T11:27:07;9.70;99.50
44671;DHT22;48397;53.016;-2.260;2023-04-25T11:29:41;9.40;97.70
44671;DHT22;48397;53.016;-2.260;2023-04-25T11:32:09;9.40;98.30
44671;DHT22;48397;53.016;-2.260;2023-04-25T11:34:38;9.50;98.50
44671;DHT22;48397;53.016;-2.260;2023-04-25T11:37:06;10.00;98.70
44671;DHT22;48397;53.016;-2.260;2023-04-25T11:39:34;10.00;98.80
44671;DHT22;48397;53.016;-2.260;2023-04-25T11:42:05;10.40;94.60
44671;DHT22;48397;53.016;-2.260;2023-04-25T11:44:35;10.60;96.70
44671;DHT22;48397;53.016;-2.260;2023-04-25T11:47:06;10.80;94.70
44671;DHT22;48397;53.016;-2.260;2023-04-25T11:49:35;10.80;95.10
44671;DHT22;48397;53.016;-2.260;2023-04-25T11:52:03;10.30;95.00
44671;DHT22;48397;53.016;-2.260;2023-04-25T11:54:37;10.20;94.80
44671;DHT22;48397;53.016;-2.260;2023-04-25T11:57:05;10.30;95.50
44671;DHT22;48397;53.016;-2.260;2023-04-25T11:59:33;10.40;94.60
44671;DHT22;48397;53.016;-2.260;2023-04-25T12:02:01;10.40;95.20
44671;DHT22;48397;53.016;-2.260;2023-04-25T12:04:30;11.10;94.10
44671;DHT22;48397;53.016;-2.260;2023-04-25T12:06:58;11.60;94.70
44671;DHT22;48397;53.016;-2.260;2023-04-25T12:09:33;11.70;95.70
44671;DHT22;48397;53.016;-2.260;2023-04-25T12:12:02;11.90;93.20
44671;DHT22;48397;53.016;-2.260;2023-04-25T12:14:35;11.80;90.90
44671;DHT22;48397;53.016;-2.260;2023-04-25T12:17:11;11.30;92.20
44671;DHT22;48397;53.016;-2.260;2023-04-25T12:19:39;10.80;92.10
44671;DHT22;48397;53.016;-2.260;2023-04-25T12:22:22;10.40;92.40
44671;DHT22;48397;53.016;-2.260;2023-04-25T12:24:50;10.10;92.30
44671;DHT22;48397;53.016;-2.260;2023-04-25T12:27:18;10.00;92.60
44671;DHT22;48397;53.016;-2.260;2023-04-25T12:29:56;10.40;94.10
44671;DHT22;48397;53.016;-2.260;2023-04-25T12:32:25;10.90;94.10
44671;DHT22;48397;53.016;-2.260;2023-04-25T12:34:56;11.70;92.90
44671;DHT22;48397;53.016;-2.260;2023-04-25T12:37:28;12.10;93.80
44671;DHT22;48397;53.016;-2.260;2023-04-25T12:40:03;12.80;92.50
44671;DHT22;48397;53.016;-2.260;2023-04-25T12:42:35;13.50;91.60
44671;DHT22;48397;53.016;-2.260;2023-04-25T12:45:05;14.00;86.20
44671;DHT22;48397;53.016;-2.260;2023-04-25T13:00:22;12.90;82.80
44671;DHT22;48397;53.016;-2.260;2023-04-25T13:09:36;11.60;85.20
44671;DHT22;48397;53.016;-2.260;2023-04-25T13:15:16;11.40;84.30
44671;DHT22;48397;53.016;-2.260;2023-04-25T13:17:48;11.40;83.50
44671;DHT22;48397;53.016;-2.260;2023-04-25T13:20:19;11.40;85.60
44671;DHT22;48397;53.016;-2.260;2023-04-25T13:25:32;11.80;82.40
44671;DHT22;48397;53.016;-2.260;2023-04-25T13:34:52;12.70;85.20
44671;DHT22;48397;53.016;-2.260;2023-04-25T13:37:23;13.30;85.40
44671;DHT22;48397;53.016;-2.260;2023-04-25T13:39:52;13.90;85.40
44671;DHT22;48397;53.016;-2.260;2023-04-25T13:42:39;14.80;77.40
44671;DHT22;48397;53.016;-2.260;2023-04-25T13:45:52;14.90;78.20
44671;DHT22;48397;53.016;-2.260;2023-04-25T13:50:58;15.50;80.80
44671;DHT22;48397;53.016;-2.260;2023-04-25T13:53:28;15.50;81.00
44671;DHT22;48397;53.016;-2.260;2023-04-25T13:55:58;16.30;74.80
44671;DHT22;48397;53.016;-2.260;2023-04-25T13:58:26;16.30;75.50
44671;DHT22;48397;53.016;-2.260;2023-04-25T14:04:06;17.70;66.10
44671;DHT22;48397;53.016;-2.260;2023-04-25T14:09:06;16.90;66.40
44671;DHT22;48397;53.016;-2.260;2023-04-25T14:11:39;16.80;65.50
44671;DHT22;48397;53.016;-2.260;2023-04-25T14:14:07;16.80;66.00
44671;DHT22;48397;53.016;-2.260;2023-04-25T14:16:35;16.80;64.90
44671;DHT22;48397;53.016;-2.260;2023-04-25T14:19:04;16.80;65.40
44671;DHT22;48397;53.016;-2.260;2023-04-25T14:21:35;17.50;66.90
44671;DHT22;48397;53.016;-2.260;2023-04-25T14:24:09;17.50;67.20
44671;DHT22;48397;53.016;-2.260;2023-04-25T14:26:38;18.10;61.50
44671;DHT22;48397;53.016;-2.260;2023-04-25T14:29:07;18.00;62.90
44671;DHT22;48397;53.016;-2.260;2023-04-25T14:31:35;17.90;59.90
44671;DHT22;48397;53.016;-2.260;2023-04-25T14:34:04;17.60;59.20
44671;DHT22;48397;53.016;-2.260;2023-04-25T14:36:35;17.30;60.60
44671;DHT22;48397;53.016;-2.260;2023-04-25T14:39:04;17.20;61.50
44671;DHT22;48397;53.016;-2.260;2023-04-25T14:41:32;17.20;60.70
44671;DHT22;48397;53.016;-2.260;2023-04-25T14:44:00;17.30;61.40
44671;DHT22;48397;53.016;-2.260;2023-04-25T14:48:58;17.70;60.20
44671;DHT22;48397;53.016;-2.260;2023-04-25T14:51:26;17.40;59.60
44671;DHT22;48397;53.016;-2.260;2023-04-25T14:53:54;17.40;60.10
44671;DHT22;48397;53.016;-2.260;2023-04-25T14:56:29;15.80;59.90
44671;DHT22;48397;53.016;-2.260;2023-04-25T14:59:05;14.70;59.70
44671;DHT22;48397;53.016;-2.260;2023-04-25T15:01:35;13.70;60.40
44671;DHT22;48397;53.016;-2.260;2023-04-25T15:04:03;13.00;61.30
44671;DHT22;48397;53.016;-2.260;2023-04-25T15:06:31;13.00;61.80
44671;DHT22;48397;53.016;-2.260;2023-04-25T15:11:29;12.00;64.10
44671;DHT22;48397;53.016;-2.260;2023-04-25T15:13:59;12.10;65.10
44671;DHT22;48397;53.016;-2.260;2023-04-25T15:16:38;12.70;65.50
44671;DHT22;48397;53.016;-2.260;2023-04-25T15:19:21;13.70;64.90
44671;DHT22;48397;53.016;-2.260;2023-04-25T15:22:09;14.90;63.80
44671;DHT22;48397;53.016;-2.260;2023-04-25T15:24:52;15.60;62.80
44671;DHT22;48397;53.016;-2.260;2023-04-25T15:27:22;16.30;62.00
44671;DHT22;48397;53.016;-2.260;2023-04-25T15:30:29;16.50;61.90
44671;DHT22;48397;53.016;-2.260;2023-04-25T15:33:11;17.80;63.40
44671;DHT22;48397;53.016;-2.260;2023-04-25T15:39:22;19.10;58.80
44671;DHT22;48397;53.016;-2.260;2023-04-25T15:44:35;19.20;58.80
44671;DHT22;48397;53.016;-2.260;2023-04-25T15:59:06;16.80;58.50
44671;DHT22;48397;53.016;-2.260;2023-04-25T16:02:13;15.70;58.90
44671;DHT22;48397;53.016;-2.260;2023-04-25T16:11:28;13.50;61.20
44671;DHT22;48397;53.016;-2.260;2023-04-25T16:14:11;13.10;62.80
44671;DHT22;48397;53.016;-2.260;2023-04-25T16:16:40;12.90;62.50
44671;DHT22;48397;53.016;-2.260;2023-04-25T16:19:10;15.00;64.20
44671;DHT22;48397;53.016;-2.260;2023-04-25T16:21:38;12.30;63.50
44671;DHT22;48397;53.016;-2.260;2023-04-25T16:26:44;12.00;64.10
44671;DHT22;48397;53.016;-2.260;2023-04-25T16:29:13;11.90;64.50
44671;DHT22;48397;53.016;-2.260;2023-04-25T16:31:44;11.80;64.90
44671;DHT22;48397;53.016;-2.260;2023-04-25T16:34:13;11.80;64.90
44671;DHT22;48397;53.016;-2.260;2023-04-25T16:36:44;11.70;64.60
44671;DHT22;48397;53.016;-2.260;2023-04-25T16:39:13;11.60;64.10
44671;DHT22;48397;53.016;-2.260;2023-04-25T16:41:41;11.60;65.60
44671;DHT22;48397;53.016;-2.260;2023-04-25T16:44:08;11.50;66.20
44671;DHT22;48397;53.016;-2.260;2023-04-25T16:46:37;11.50;66.60
44671;DHT22;48397;53.016;-2.260;2023-04-25T16:49:05;11.50;67.00
44671;DHT22;48397;53.016;-2.260;2023-04-25T16:51:34;11.60;66.80
44671;DHT22;48397;53.016;-2.260;2023-04-25T16:54:02;12.10;64.90
44671;DHT22;48397;53.016;-2.260;2023-04-25T16:58:58;13.90;66.10
44671;DHT22;48397;53.016;-2.260;2023-04-25T17:01:25;13.90;66.40
44671;DHT22;48397;53.016;-2.260;2023-04-25T17:03:55;15.80;61.50
44671;DHT22;48397;53.016;-2.260;2023-04-25T17:06:25;16.60;58.80
44671;DHT22;48397;53.016;-2.260;2023-04-25T17:08:59;16.90;59.20
44671;DHT22;48397;53.016;-2.260;2023-04-25T17:11:27;17.20;59.40
44671;DHT22;48397;53.016;-2.260;2023-04-25T17:13:56;17.40;59.90
44671;DHT22;48397;53.016;-2.260;2023-04-25T17:16:33;17.70;59.50
44671;DHT22;48397;53.016;-2.260;2023-04-25T17:19:03;18.30;57.70
44671;DHT22;48397;53.016;-2.260;2023-04-25T17:21:35;18.60;56.10
44671;DHT22;48397;53.016;-2.260;2023-04-25T17:24:03;18.70;56.00
44671;DHT22;48397;53.016;-2.260;2023-04-25T17:26:37;18.70;56.60
44671;DHT22;48397;53.016;-2.260;2023-04-25T17:29:07;18.80;56.90
44671;DHT22;48397;53.016;-2.260;2023-04-25T17:31:35;19.10;57.50
44671;DHT22;48397;53.016;-2.260;2023-04-25T17:34:04;19.40;57.20
44671;DHT22;48397;53.016;-2.260;2023-04-25T17:36:32;19.60;55.80
44671;DHT22;48397;53.016;-2.260;2023-04-25T17:39:00;19.60;55.80
44671;DHT22;48397;53.016;-2.260;2023-04-25T17:41:28;19.60;55.30
44671;DHT22;48397;53.016;-2.260;2023-04-25T17:46:57;18.10;54.80
44671;DHT22;48397;53.016;-2.260;2023-04-25T17:49:28;17.80;56.20
44671;DHT22;48397;53.016;-2.260;2023-04-25T17:51:58;17.70;57.00
44671;DHT22;48397;53.016;-2.260;2023-04-25T17:54:27;17.60;57.00
44671;DHT22;48397;53.016;-2.260;2023-04-25T17:56:54;17.40;57.10
44671;DHT22;48397;53.016;-2.260;2023-04-25T17:59:22;17.40;57.60
44671;DHT22;48397;53.016;-2.260;2023-04-25T18:01:53;16.80;55.30
44671;DHT22;48397;53.016;-2.260;2023-04-25T18:04:24;16.40;56.10
44671;DHT22;48397;53.016;-2.260;2023-04-25T18:07:19;16.40;56.80
44671;DHT22;48397;53.016;-2.260;2023-04-25T18:15:12;15.40;57.10
44671;DHT22;48397;53.016;-2.260;2023-04-25T18:17:41;15.00;57.40
44671;DHT22;48397;53.016;-2.260;2023-04-25T18:20:13;14.50;58.70
44671;DHT22;48397;53.016;-2.260;2023-04-25T18:23:00;14.50;59.40
44671;DHT22;48397;53.016;-2.260;2023-04-25T18:25:30;13.30;60.00
44671;DHT22;48397;53.016;-2.260;2023-04-25T18:31:10;12.60;61.60
44671;DHT22;48397;53.016;-2.260;2023-04-25T18:34:35;12.20;62.30
44671;DHT22;48397;53.016;-2.260;2023-04-25T18:37:04;12.00;61.60
44671;DHT22;48397;53.016;-2.260;2023-04-25T18:39:37;11.70;62.20
44671;DHT22;48397;53.016;-2.260;2023-04-25T18:42:09;11.60;62.30
44671;DHT22;48397;53.016;-2.260;2023-04-25T18:44:38;11.50;63.70
44671;DHT22;48397;53.016;-2.260;2023-04-25T18:47:08;11.40;63.10
44671;DHT22;48397;53.016;-2.260;2023-04-25T18:49:40;11.20;63.50
44671;DHT22;48397;53.016;-2.260;2023-04-25T18:55:05;10.80;64.10
44671;DHT22;48397;53.016;-2.260;2023-04-25T19:34:14;9.80;66.40
44671;DHT22;48397;53.016;-2.260;2023-04-25T19:37:29;9.80;66.40
44671;DHT22;48397;53.016;-2.260;2023-04-25T19:40:18;9.70;66.60
44671;DHT22;48397;53.016;-2.260;2023-04-25T19:42:47;9.60;66.70
44671;DHT22;48397;53.016;-2.260;2023-04-25T19:45:15;9.60;67.00
44671;DHT22;48397;53.016;-2.260;2023-04-25T19:52:40;9.50;67.40
44671;DHT22;48397;53.016;-2.260;2023-04-25T19:55:09;9.40;67.80
44671;DHT22;48397;53.016;-2.260;2023-04-25T19:57:37;9.40;68.10
44671;DHT22;48397;53.016;-2.260;2023-04-25T20:00:09;9.40;68.30
44671;DHT22;48397;53.016;-2.260;2023-04-25T20:02:40;9.30;68.60
44671;DHT22;48397;53.016;-2.260;2023-04-25T20:05:11;9.30;68.70
44671;DHT22;48397;53.016;-2.260;2023-04-25T20:10:11;9.30;69.10
44671;DHT22;48397;53.016;-2.260;2023-04-25T20:17:41;9.20;70.10
44671;DHT22;48397;53.016;-2.260;2023-04-25T20:20:11;9.10;70.50
44671;DHT22;48397;53.016;-2.260;2023-04-25T20:25:09;9.80;71.20
44671;DHT22;48397;53.016;-2.260;2023-04-25T20:27:38;9.10;71.50
44671;DHT22;48397;53.016;-2.260;2023-04-25T20:30:09;9.00;71.30
44671;DHT22;48397;53.016;-2.260;2023-04-25T20:35:08;8.90;72.30
44671;DHT22;48397;53.016;-2.260;2023-04-25T20:37:39;8.80;75.50
44671;DHT22;48397;53.016;-2.260;2023-04-25T20:40:07;7.50;76.30
44671;DHT22;48397;53.016;-2.260;2023-04-25T20:50:05;8.10;79.80
44671;DHT22;48397;53.016;-2.260;2023-04-25T20:52:33;7.90;80.50
44671;DHT22;48397;53.016;-2.260;2023-04-25T20:59:59;7.70;83.90
44671;DHT22;48397;53.016;-2.260;2023-04-25T21:02:28;7.70;84.30
44671;DHT22;48397;53.016;-2.260;2023-04-25T21:04:56;7.60;85.00
44671;DHT22;48397;53.016;-2.260;2023-04-25T21:07:23;7.50;85.20
44671;DHT22;48397;53.016;-2.260;2023-04-25T21:12:20;7.40;88.70
44671;DHT22;48397;53.016;-2.260;2023-04-25T21:14:48;7.20;90.00
44671;DHT22;48397;53.016;-2.260;2023-04-25T21:17:16;7.20;90.80
44671;DHT22;48397;53.016;-2.260;2023-04-25T21:19:44;7.10;91.50
44671;DHT22;48397;53.016;-2.260;2023-04-25T21:22:12;7.00;92.00
44671;DHT22;48397;53.016;-2.260;2023-04-25T21:24:40;6.90;92.50
44671;DHT22;48397;53.016;-2.260;2023-04-25T21:27:08;6.90;93.00
44671;DHT22;48397;53.016;-2.260;2023-04-25T21:29:36;6.80;93.40
44671;DHT22;48397;53.016;-2.260;2023-04-25T21:32:03;6.80;94.30
44671;DHT22;48397;53.016;-2.260;2023-04-25T21:34:31;6.70;94.90
44671;DHT22;48397;53.016;-2.260;2023-04-25T21:39:27;6.70;95.60
44671;DHT22;48397;53.016;-2.260;2023-04-25T21:44:23;6.50;96.90
44671;DHT22;48397;53.016;-2.260;2023-04-25T21:46:51;8.90;97.70
44671;DHT22;48397;53.016;-2.260;2023-04-25T21:49:19;6.40;98.10
44671;DHT22;48397;53.016;-2.260;2023-04-25T21:56:45;6.40;99.90
44671;DHT22;48397;53.016;-2.260;2023-04-25T21:59:13;6.30;99.90
44671;DHT22;48397;53.016;-2.260;2023-04-25T22:01:42;6.20;99.90